Time;durP1;ratioP1;P1;durP2;ratioP2;P2;SDS_P1;SDS_P2;PMS_P1;PMS_P2;Temp;Humidity;BMP_temperature;BMP_pressure;BME280_temperature;BME280_humidity;BME280_pressure;Samples;Min_cycle;Max_cycle;Signal;HPM_P1;HPM_P2
2022/02/10 15:21:20;;;;;;;7.57;3.80;;;;;;;11.51;46.53;100112.34;5005025;28;106312;-82
2022/02/10 15:51:33;;;;;;;5.95;3.38;;;;;;;10.31;51.49;100142.69;5002374;28;105853;-81
2022/02/10 16:12:37;;;;;;;7.97;4.05;;;;;;;10.10;51.37;100124.63;4991769;28;106010;-80
2022/02/10 16:15:02;;;;;;;9.90;4.57;;;;;;;10.06;51.60;100125.94;4993952;28;106031;-78
2022/02/10 16:17:27;;;;;;;6.75;3.33;;;;;;;10.07;51.64;100130.25;4998640;28;107982;-78
2022/02/10 16:19:54;;;;;;;12.93;4.57;;;;;;;10.07;51.46;100130.25;4997184;28;106736;-78
2022/02/10 16:24:57;;;;;;;11.15;5.65;;;;;;;10.03;51.58;100133.44;4991145;28;106278;-76
2022/02/10 16:27:26;;;;;;;8.82;3.92;;;;;;;10.00;51.63;100129.28;4990875;28;105829;-77
2022/02/10 16:30:00;;;;;;;6.57;4.43;;;;;;;9.98;52.02;100125.97;4988743;28;105947;-78
2022/02/10 16:32:26;;;;;;;10.55;4.50;;;;;;;9.96;51.89;100123.47;4992703;28;106072;-84
2022/02/10 16:34:51;;;;;;;11.85;4.68;;;;;;;9.93;52.22;100133.63;4988122;28;106194;-77
2022/02/10 16:37:17;;;;;;;11.43;4.95;;;;;;;9.94;52.27;100125.47;4978851;28;106256;-77
2022/02/10 16:39:43;;;;;;;12.68;5.32;;;;;;;9.94;52.18;100137.94;4996723;28;107039;-76
2022/02/10 16:42:13;;;;;;;7.20;4.30;;;;;;;9.93;52.38;100141.59;5005710;28;106039;-76
2022/02/10 16:44:39;;;;;;;9.13;4.88;;;;;;;9.88;52.54;100127.94;5005117;28;106313;-80
2022/02/10 16:47:06;;;;;;;7.15;4.55;;;;;;;9.88;52.70;100139.41;4996166;28;106440;-76
2022/02/10 16:49:32;;;;;;;9.25;4.78;;;;;;;9.88;53.03;100147.41;4988344;28;107860;-76
2022/02/10 16:51:58;;;;;;;11.52;5.22;;;;;;;9.87;52.85;100135.13;4988244;28;106091;-77
2022/02/10 16:54:33;;;;;;;9.25;5.18;;;;;;;9.86;53.04;100137.94;4988833;28;106406;-75
2022/02/10 16:59:41;;;;;;;9.38;4.93;;;;;;;9.84;52.94;100146.06;4994845;28;106154;-78
2022/02/10 17:02:23;;;;;;;9.57;5.05;;;;;;;9.81;53.00;100139.28;4997498;28;106094;-76
2022/02/10 17:18:39;;;;;;;7.28;4.00;;;;;;;9.81;53.70;100157.06;4988157;28;106055;-82
2022/02/10 17:26:42;;;;;;;10.98;4.80;;;;;;;9.78;53.50;100168.84;4996625;28;106594;-77
2022/02/10 17:29:14;;;;;;;9.68;5.47;;;;;;;9.79;53.67;100175.84;5004985;28;108003;-81
2022/02/10 17:37:05;;;;;;;9.15;4.80;;;;;;;9.75;53.48;100182.50;4992804;28;105957;-75
2022/02/10 17:51:27;;;;;;;8.45;3.88;;;;;;;9.44;54.34;100191.06;4975396;28;106153;-79
2022/02/10 17:53:14;;;;;;;6.65;4.53;;;;;;;9.18;54.69;100214.28;4968418;28;106337;-80
2022/02/10 17:55:39;;;;;;;9.20;5.32;;;;;;;9.08;54.62;100207.25;4968966;28;106137;-76
2022/02/10 17:58:05;;;;;;;11.10;5.55;;;;;;;9.03;55.01;100212.22;4968523;28;106192;-83
2022/02/10 18:00:30;;;;;;;9.77;5.28;;;;;;;8.97;55.43;100197.75;4984541;28;106670;-75
2022/02/10 18:02:59;;;;;;;10.90;5.88;;;;;;;8.92;55.34;100210.66;4995871;28;106463;-84
2022/02/10 18:08:13;;;;;;;10.10;6.05;;;;;;;8.87;56.12;100204.16;4995341;28;106231;-87
2022/02/10 18:15:49;;;;;;;9.85;5.97;;;;;;;8.70;56.47;100228.00;4994151;28;105933;-77
2022/02/10 18:18:24;;;;;;;11.63;6.78;;;;;;;8.63;56.95;100221.66;4996368;28;106056;-84
2022/02/10 18:20:56;;;;;;;12.13;7.07;;;;;;;8.58;56.71;100227.44;4998645;28;110007;-84
2022/02/10 18:23:33;;;;;;;11.35;6.47;;;;;;;8.53;57.43;100221.75;4998480;28;106193;-80
2022/02/10 18:26:56;;;;;;;13.65;7.15;;;;;;;8.50;57.85;100237.97;4997375;28;105933;-77
2022/02/10 18:29:03;;;;;;;15.00;7.78;;;;;;;8.43;57.75;100227.16;4997561;28;106122;-77
2022/02/10 18:34:33;;;;;;;11.60;7.40;;;;;;;8.34;58.38;100228.06;4996952;28;106099;-88
2022/02/10 19:09:34;;;;;;;12.63;6.40;;;;;;;7.85;60.69;100235.63;4963006;28;105970;-79
2022/02/10 19:12:03;;;;;;;14.98;8.45;;;;;;;7.81;60.49;100252.81;4980151;28;106689;-83
2022/02/10 19:14:32;;;;;;;15.27;8.02;;;;;;;7.82;61.42;100254.47;4995756;28;108592;-83
2022/02/10 19:16:57;;;;;;;13.32;7.10;;;;;;;7.81;61.45;100253.66;4993575;28;106548;-82
2022/02/10 19:19:23;;;;;;;13.68;7.70;;;;;;;7.78;61.59;100244.16;4987708;28;106100;-81
2022/02/10 19:21:49;;;;;;;16.83;8.15;;;;;;;7.75;61.36;100260.41;4996826;28;105967;-78
2022/02/10 19:24:14;;;;;;;15.75;8.45;;;;;;;7.72;61.46;100263.34;4985344;28;106021;-81
2022/02/10 19:26:40;;;;;;;15.52;7.00;;;;;;;7.70;61.68;100261.81;4987179;28;106900;-77
2022/02/10 19:29:05;;;;;;;12.55;8.23;;;;;;;7.69;61.67;100271.59;4986671;28;106180;-82
2022/02/10 19:31:35;;;;;;;14.70;8.27;;;;;;;7.66;61.88;100268.41;4984524;28;106259;-82
2022/02/10 19:34:00;;;;;;;9.77;7.00;;;;;;;7.60;61.56;100277.81;4985991;28;106063;-76
2022/02/10 19:36:28;;;;;;;9.93;7.18;;;;;;;7.54;62.35;100275.72;4985224;28;106107;-78
2022/02/10 19:38:53;;;;;;;13.65;7.93;;;;;;;7.48;62.19;100273.66;4988878;28;106367;-80
2022/02/10 19:41:19;;;;;;;10.30;6.82;;;;;;;7.39;62.02;100278.88;4993719;28;106735;-78
2022/02/10 19:43:44;;;;;;;12.05;7.60;;;;;;;7.36;62.45;100281.81;4991803;28;106372;-80
2022/02/10 19:46:11;;;;;;;13.85;7.57;;;;;;;7.32;62.79;100291.03;4989888;28;106068;-85
2022/02/10 19:48:38;;;;;;;13.48;7.18;;;;;;;7.31;62.92;100293.84;5003199;28;106146;-83
2022/02/10 19:51:03;;;;;;;13.05;7.72;;;;;;;7.24;63.21;100305.00;4996947;28;106255;-79
2022/02/10 19:53:29;;;;;;;12.32;7.22;;;;;;;7.20;63.17;100308.09;4999862;28;108686;-78
2022/02/10 19:55:55;;;;;;;12.52;7.35;;;;;;;7.13;62.88;100317.63;4993765;28;106262;-85
2022/02/10 19:58:23;;;;;;;12.25;7.45;;;;;;;7.07;63.50;100309.28;4994621;28;106035;-83
2022/02/10 20:00:55;;;;;;;12.73;7.57;;;;;;;7.01;63.41;100312.50;4999965;28;106241;-79
2022/02/10 20:03:23;;;;;;;12.13;7.57;;;;;;;6.92;63.64;100310.72;4995676;28;106670;-83
2022/02/10 20:05:51;;;;;;;11.82;7.85;;;;;;;6.82;63.83;100307.25;4998655;28;106713;-77
2022/02/10 20:08:20;;;;;;;15.18;8.10;;;;;;;6.76;64.57;100314.78;5000902;28;106020;-85
2022/02/10 20:10:48;;;;;;;12.13;8.95;;;;;;;6.77;64.66;100321.75;4999074;28;106311;-79
2022/02/10 20:13:16;;;;;;;12.75;8.90;;;;;;;6.84;64.84;100337.09;4999013;28;106122;-81
2022/02/10 20:15:43;;;;;;;14.50;9.30;;;;;;;6.88;65.12;100318.09;4997464;28;106080;-79
2022/02/10 20:18:12;;;;;;;13.80;9.32;;;;;;;6.94;64.96;100322.00;4997743;28;106159;-78
2022/02/10 20:20:37;;;;;;;15.82;10.48;;;;;;;6.94;65.20;100320.19;4986967;28;106242;-76
2022/02/10 20:23:02;;;;;;;20.08;10.45;;;;;;;6.99;64.98;100327.69;4995044;28;106069;-80
2022/02/10 20:25:28;;;;;;;17.52;10.65;;;;;;;7.01;64.81;100332.84;4997512;28;106538;-78
2022/02/10 20:27:53;;;;;;;21.13;11.60;;;;;;;7.03;64.93;100334.38;5000041;28;106517;-79
2022/02/10 20:30:18;;;;;;;18.13;10.77;;;;;;;7.05;65.33;100340.38;4995715;28;106130;-76
2022/02/10 20:32:44;;;;;;;19.55;10.80;;;;;;;7.06;65.27;100342.03;4997941;28;106643;-78
2022/02/10 20:35:11;;;;;;;15.80;9.98;;;;;;;7.09;65.23;100344.41;4998898;28;108438;-80
2022/02/10 20:37:37;;;;;;;20.20;11.05;;;;;;;7.12;65.35;100348.56;4989060;28;105881;-82
2022/02/10 20:40:04;;;;;;;16.27;10.07;;;;;;;7.16;65.54;100335.88;4988658;28;105954;-83
2022/02/10 20:42:31;;;;;;;16.10;9.98;;;;;;;7.18;65.59;100341.88;4989135;28;106657;-83
2022/02/10 20:44:57;;;;;;;15.60;11.55;;;;;;;7.19;65.55;100348.81;4990241;28;106149;-78
2022/02/10 20:47:25;;;;;;;14.43;10.00;;;;;;;7.20;65.57;100348.69;4999694;28;106184;-80
2022/02/10 20:49:51;;;;;;;16.52;10.18;;;;;;;7.20;65.50;100347.84;4997091;28;107009;-81
2022/02/10 20:52:16;;;;;;;14.63;9.63;;;;;;;7.21;65.24;100341.59;4989122;28;106084;-79
2022/02/10 20:54:42;;;;;;;13.02;9.27;;;;;;;7.21;65.29;100339.75;4994766;28;106046;-80
2022/02/10 20:57:08;;;;;;;16.25;9.82;;;;;;;7.21;65.52;100337.09;4998586;28;106575;-79
2022/02/10 20:59:40;;;;;;;16.90;10.90;;;;;;;7.20;65.14;100342.56;4997007;28;106234;-79
2022/02/10 21:02:11;;;;;;;16.77;9.88;;;;;;;7.19;65.43;100338.22;4992345;28;105921;-81
2022/02/10 21:04:42;;;;;;;14.52;9.27;;;;;;;7.21;66.04;100357.47;4988812;28;106518;-76
2022/02/10 21:10:01;;;;;;;15.80;9.05;;;;;;;7.23;65.75;100344.91;4985738;28;106583;-80
2022/02/10 21:12:30;;;;;;;19.42;10.90;;;;;;;7.25;65.67;100350.91;4988634;28;108120;-78
2022/02/10 21:14:56;;;;;;;17.60;11.32;;;;;;;7.25;66.11;100348.25;4988004;28;106612;-82
2022/02/10 21:17:25;;;;;;;15.98;10.38;;;;;;;7.23;66.37;100351.06;4987406;28;106075;-85
2022/02/10 21:19:57;;;;;;;17.13;10.88;;;;;;;7.21;66.14;100346.88;4983703;28;106330;-81
2022/02/10 21:22:22;;;;;;;18.20;11.63;;;;;;;7.19;66.12;100354.13;4984182;28;107324;-81
2022/02/10 21:24:54;;;;;;;17.42;10.90;;;;;;;7.16;66.17;100355.25;4994458;28;105906;-84
2022/02/10 21:30:07;;;;;;;15.38;10.68;;;;;;;7.18;66.60;100358.59;4994110;28;106345;-80
2022/02/10 21:32:37;;;;;;;18.58;10.88;;;;;;;7.17;66.12;100358.75;4987974;28;108320;-77
2022/02/10 21:35:25;;;;;;;17.25;11.98;;;;;;;7.17;66.80;100366.69;4990283;28;106337;-81
2022/02/10 21:38:10;;;;;;;18.10;10.52;;;;;;;7.18;66.65;100363.06;4993215;28;106079;-85
2022/02/10 21:41:09;;;;;;;18.80;10.98;;;;;;;7.13;66.80;100366.13;4994157;28;106131;-83
